Time;durP1;ratioP1;P1;durP2;ratioP2;P2;SDS_P1;SDS_P2;PMS_P1;PMS_P2;Temp;Humidity;BMP_temperature;BMP_pressure;BME280_temperature;BME280_humidity;BME280_pressure;Samples;Min_cycle;Max_cycle;Signal;HPM_P1;HPM_P2
2022/04/07 00:02:06;;;;;;;6.13;3.33;;;8.80;99.90;;;8.11;94.90;96136.59;5000579;28;20081;-72
2022/04/07 00:04:33;;;;;;;6.55;3.13;;;8.80;99.90;;;8.10;95.06;96142.69;4998917;28;20078;-73
2022/04/07 00:07:01;;;;;;;4.28;2.88;;;8.70;99.90;;;8.03;95.26;96149.09;5006628;28;20430;-72
2022/04/07 00:09:28;;;;;;;6.00;3.00;;;8.80;99.90;;;7.91;95.43;96127.34;4999961;28;20120;-72
2022/04/07 00:11:55;;;;;;;7.18;2.80;;;8.80;99.90;;;8.02;95.39;96131.94;5004679;28;20448;-72
2022/04/07 00:14:22;;;;;;;6.38;3.22;;;8.80;99.90;;;7.94;95.48;96138.34;5001592;28;20133;-73
2022/04/07 00:16:49;;;;;;;6.45;2.97;;;8.70;99.90;;;7.96;95.48;96113.28;5002928;28;20081;-72
2022/04/07 00:19:16;;;;;;;7.82;3.45;;;8.70;99.90;;;7.96;95.57;96127.94;5005089;28;20046;-73
2022/04/07 00:21:46;;;;;;;4.88;2.72;;;8.70;99.90;;;8.00;95.51;96111.31;5003301;28;20080;-72
2022/04/07 00:24:14;;;;;;;7.43;3.88;;;8.70;99.90;;;7.79;95.56;96120.28;5004010;28;20571;-73
2022/04/07 00:26:41;;;;;;;7.15;3.63;;;8.70;99.90;;;7.71;95.32;96100.03;5006625;28;20050;-72
2022/04/07 00:29:08;;;;;;;5.95;3.58;;;8.60;99.90;;;7.72;95.04;96110.28;5003389;28;20050;-73
2022/04/07 00:31:42;;;;;;;5.65;3.17;;;8.40;99.90;;;7.61;94.83;96125.50;5000428;28;20112;-73
2022/04/07 00:34:11;;;;;;;7.40;4.00;;;8.40;99.90;;;7.67;94.63;96112.28;5016871;28;20082;-72
2022/04/07 00:36:39;;;;;;;8.07;3.95;;;8.40;99.90;;;7.65;94.49;96113.28;5028989;28;20058;-73
2022/04/07 00:39:06;;;;;;;9.48;4.28;;;8.40;99.90;;;7.63;94.44;96135.78;5000918;28;20151;-73
2022/04/07 00:41:37;;;;;;;7.38;3.95;;;8.40;99.90;;;7.64;94.35;96103.84;5002583;28;20050;-73
2022/04/07 00:44:08;;;;;;;8.65;4.25;;;8.40;99.90;;;7.57;94.25;96111.09;5004819;28;20056;-73
2022/04/07 00:46:38;;;;;;;6.75;4.40;;;8.30;99.90;;;7.53;94.09;96101.88;5002009;28;20168;-72
2022/04/07 00:49:05;;;;;;;8.40;5.07;;;8.30;99.90;;;7.59;93.99;96114.44;4999850;28;20077;-73
2022/04/07 00:51:35;;;;;;;8.85;4.47;;;8.30;99.90;;;7.69;93.91;96086.38;5003972;28;20065;-72
2022/04/07 00:54:02;;;;;;;10.57;5.13;;;8.20;99.90;;;7.58;93.90;96099.88;5004025;28;20125;-73
2022/04/07 00:56:31;;;;;;;9.63;5.32;;;8.20;99.90;;;7.64;93.79;96078.88;5005287;28;20556;-73
2022/04/07 00:58:58;;;;;;;6.68;4.80;;;8.20;99.90;;;7.53;93.78;96084.63;5002965;28;20050;-73
2022/04/07 01:01:28;;;;;;;6.53;4.78;;;8.20;99.90;;;7.47;93.74;96090.13;5004461;28;20046;-72
2022/04/07 01:03:56;;;;;;;8.10;4.50;;;8.30;99.90;;;7.52;93.68;96106.19;5004049;28;20042;-72
2022/04/07 01:06:24;;;;;;;7.70;4.75;;;8.20;99.90;;;7.61;93.63;96078.22;5007982;28;20208;-73
2022/04/07 01:08:52;;;;;;;7.53;3.97;;;8.20;99.90;;;7.45;93.62;96070.47;5003265;28;20068;-73
2022/04/07 01:11:19;;;;;;;10.73;5.32;;;8.20;99.90;;;7.50;93.49;96068.47;5005922;28;20082;-73
2022/04/07 01:13:51;;;;;;;6.68;3.90;;;8.20;99.90;;;7.39;93.34;96065.63;5000043;28;20571;-71
2022/04/07 01:16:27;;;;;;;7.57;4.70;;;8.20;99.90;;;7.41;93.15;96056.06;5004882;28;20761;-73
2022/04/07 01:18:56;;;;;;;8.35;4.75;;;8.10;99.90;;;7.37;93.09;96065.72;5003444;28;20073;-71
2022/04/07 01:21:24;;;;;;;6.97;3.78;;;8.10;99.90;;;7.36;93.04;96089.03;5000684;28;20469;-73
2022/04/07 01:24:04;;;;;;;7.25;3.92;;;8.10;99.90;;;7.39;92.94;96081.13;5003369;28;20150;-73
2022/04/07 01:26:42;;;;;;;6.68;3.40;;;8.10;99.90;;;7.36;92.90;96065.81;5036483;28;20133;-72
2022/04/07 01:29:15;;;;;;;7.57;4.13;;;8.10;99.90;;;7.34;92.81;96065.88;5001028;28;20078;-72
2022/04/07 01:31:42;;;;;;;;;;;8.00;99.90;;;7.37;92.75;96052.81;5006244;28;20141;-73
2022/04/07 01:34:14;;;;;;;7.93;4.28;;;8.00;99.90;;;7.27;92.71;96085.19;5006580;28;19922;-72
2022/04/07 01:36:44;;;;;;;8.32;4.78;;;8.00;99.90;;;7.31;92.60;96072.03;5001742;28;20080;-71
2022/04/07 01:39:13;;;;;;;7.30;4.15;;;8.00;99.90;;;7.37;92.58;96057.97;5001397;28;20737;-72
2022/04/07 01:41:43;;;;;;;5.47;3.42;;;7.90;99.90;;;7.31;92.54;96056.56;5008493;28;20042;-72
2022/04/07 01:44:13;;;;;;;8.35;3.75;;;8.00;99.90;;;7.29;92.52;96079.03;5005899;28;20046;-72
2022/04/07 01:46:40;;;;;;;5.70;3.78;;;8.00;99.90;;;7.37;92.48;96057.97;5002215;28;20133;-72
2022/04/07 01:49:08;;;;;;;7.45;4.30;;;8.00;99.90;;;7.42;92.46;96075.81;5007067;28;20046;-72
2022/04/07 01:51:37;;;;;;;5.97;3.90;;;8.00;99.90;;;7.38;92.48;96023.50;5010417;28;20042;-72
2022/04/07 01:54:11;;;;;;;8.57;3.88;;;8.00;99.90;;;7.38;92.49;96071.72;5003972;28;20133;-72
2022/04/07 01:56:43;;;;;;;7.15;3.63;;;8.00;99.90;;;7.39;92.44;96065.63;5009672;28;20054;-72
2022/04/07 01:59:10;;;;;;;6.78;4.50;;;8.10;99.90;;;7.38;92.41;96106.09;5007674;28;20480;-72
2022/04/07 02:01:38;;;;;;;6.57;4.20;;;8.00;99.90;;;7.34;92.38;96071.03;5006606;28;20069;-72
2022/04/07 02:04:05;;;;;;;5.60;3.75;;;8.00;99.90;;;7.30;92.38;96067.81;5001092;28;20492;-72
2022/04/07 02:06:32;;;;;;;6.05;3.78;;;8.00;99.90;;;7.32;92.34;96049.63;5003765;28;20267;-72
2022/04/07 02:09:00;;;;;;;8.85;3.15;;;8.00;99.90;;;7.35;92.33;96049.50;4998795;28;20448;-72
2022/04/07 02:11:28;;;;;;;4.38;3.25;;;8.00;99.90;;;7.31;92.31;96035.06;5008952;28;20124;-72
2022/04/07 02:13:55;;;;;;;9.82;3.70;;;8.00;99.90;;;7.28;92.27;96030.91;5004773;28;20057;-72
2022/04/07 02:16:22;;;;;;;4.72;2.90;;;8.00;99.90;;;7.31;92.22;96009.28;5006487;28;20060;-72
2022/04/07 02:18:50;;;;;;;6.50;3.70;;;7.90;99.90;;;7.25;92.20;96045.72;5007379;28;20046;-72
2022/04/07 02:21:17;;;;;;;6.20;3.00;;;8.00;99.90;;;7.31;92.20;96053.16;5011196;28;20583;-70
2022/04/07 02:23:44;;;;;;;5.47;3.08;;;8.00;99.90;;;7.21;92.15;96046.84;5003563;28;20520;-72
2022/04/07 02:26:13;;;;;;;6.72;4.18;;;8.00;99.90;;;7.28;92.13;96063.66;5037780;28;20038;-72
2022/04/07 02:28:40;;;;;;;5.78;3.10;;;8.00;99.90;;;7.29;92.09;96057.56;5004487;28;20161;-71
2022/04/07 02:31:07;;;;;;;5.80;3.55;;;8.00;99.90;;;7.24;92.07;96057.81;5005017;28;20530;-71
2022/04/07 02:33:35;;;;;;;10.05;3.83;;;8.00;99.90;;;7.25;92.06;96038.84;5002377;28;20077;-73
2022/04/07 02:36:05;;;;;;;8.48;4.57;;;7.90;99.90;;;7.34;92.35;96055.56;5003661;28;20124;-74
2022/04/07 02:38:33;;;;;;;6.45;3.40;;;7.90;99.90;;;7.42;92.38;96037.09;5001259;28;20132;-72
2022/04/07 02:41:00;;;;;;;6.40;3.38;;;8.00;99.90;;;7.34;92.38;96019.41;5001373;28;20138;-72
2022/04/07 02:43:28;;;;;;;4.70;3.20;;;8.00;99.90;;;7.33;92.37;96066.81;5001874;28;20556;-72
2022/04/07 02:45:55;;;;;;;5.68;3.40;;;8.00;99.90;;;7.31;92.35;96053.16;5002160;28;20060;-72
2022/04/07 02:48:22;;;;;;;8.27;5.03;;;7.90;99.90;;;7.33;92.33;96044.41;5005556;28;20534;-72
2022/04/07 02:50:50;;;;;;;7.32;3.92;;;7.90;99.90;;;7.40;92.33;96054.41;5004939;28;20140;-71
2022/04/07 02:53:17;;;;;;;9.98;4.45;;;8.00;99.90;;;7.38;92.35;96046.72;5004748;28;20046;-72
2022/04/07 02:55:43;;;;;;;7.03;3.85;;;8.00;99.90;;;7.40;92.34;96023.44;5002829;28;20046;-71
2022/04/07 02:58:10;;;;;;;10.05;5.15;;;8.00;99.90;;;7.42;92.37;96024.19;5005532;28;20073;-72
2022/04/07 03:00:38;;;;;;;5.00;3.20;;;8.00;99.90;;;7.41;92.38;96025.94;5007093;28;20138;-71
2022/04/07 03:03:05;;;;;;;5.85;3.60;;;8.10;99.90;;;7.41;92.40;96025.94;5003206;28;20126;-73
2022/04/07 03:05:32;;;;;;;4.70;3.47;;;8.00;99.90;;;7.49;92.44;96002.25;5006176;28;20128;-73
2022/04/07 03:07:58;;;;;;;6.80;2.97;;;8.10;99.90;;;7.48;92.48;96008.31;5003605;28;20061;-73
2022/04/07 03:10:25;;;;;;;5.93;2.92;;;8.10;99.90;;;7.49;92.50;95992.75;5003535;28;20128;-73
2022/04/07 03:12:52;;;;;;;7.85;3.88;;;8.10;99.90;;;7.46;92.53;96011.00;5005080;28;20084;-72
2022/04/07 03:15:19;;;;;;;6.13;3.60;;;8.10;99.90;;;7.49;92.57;96008.25;5001212;28;20050;-72
2022/04/07 03:17:46;;;;;;;5.93;3.30;;;8.10;99.90;;;7.46;92.61;95974.06;5004637;28;20136;-72
2022/04/07 03:20:13;;;;;;;4.78;3.45;;;8.10;99.90;;;7.57;92.62;95966.50;5001522;28;20129;-72
2022/04/07 03:22:40;;;;;;;6.63;2.67;;;8.20;99.90;;;7.56;92.68;95990.66;5005295;28;20053;-72
2022/04/07 03:25:08;;;;;;;6.88;4.07;;;8.30;99.90;;;7.62;92.75;95959.34;5005942;28;20052;-73
2022/04/07 03:27:35;;;;;;;5.47;2.90;;;8.30;99.90;;;7.50;92.78;95985.84;5005420;28;20050;-72
2022/04/07 03:30:03;;;;;;;7.22;3.25;;;8.30;99.90;;;7.63;92.83;95970.50;5002730;28;20084;-72
2022/04/07 03:32:30;;;;;;;6.00;3.03;;;8.30;99.90;;;7.57;92.88;95965.69;5002977;28;20098;-72
2022/04/07 03:34:57;;;;;;;4.60;2.22;;;8.30;99.90;;;7.57;92.94;95976.84;5003684;28;20073;-72
2022/04/07 03:37:24;;;;;;;3.80;2.85;;;8.40;99.90;;;7.62;92.96;95961.09;5002767;28;20076;-73
2022/04/07 03:39:51;;;;;;;5.85;3.20;;;8.30;99.90;;;7.49;92.93;95964.38;5003034;28;20489;-72
2022/04/07 03:42:18;;;;;;;5.93;3.83;;;8.30;99.90;;;7.52;92.90;95932.38;5004795;28;20066;-72
2022/04/07 03:44:45;;;;;;;3.28;2.70;;;8.20;99.90;;;7.47;92.90;95986.84;5009831;28;20080;-72
2022/04/07 03:47:12;;;;;;;8.05;4.65;;;8.10;99.90;;;7.53;92.89;95947.78;5005700;28;20142;-72
2022/04/07 03:49:39;;;;;;;6.13;4.05;;;8.10;99.90;;;7.35;92.89;95966.06;5006413;28;20141;-72
2022/04/07 03:52:07;;;;;;;9.63;4.93;;;8.00;99.90;;;7.35;92.81;95925.59;5006950;28;20050;-71
2022/04/07 03:54:34;;;;;;;4.35;3.03;;;8.10;99.90;;;7.35;92.74;95997.03;5002504;28;20085;-72
2022/04/07 03:57:01;;;;;;;4.95;3.40;;;8.00;99.90;;;7.39;92.75;95926.25;5002588;28;20074;-72
2022/04/07 03:59:29;;;;;;;6.15;3.67;;;8.10;99.90;;;7.31;92.72;95913.78;4985486;28;20499;-72
2022/04/07 04:01:56;;;;;;;6.88;3.25;;;8.00;99.90;;;7.36;92.68;95913.50;5005997;28;20080;-72
2022/04/07 04:04:23;;;;;;;4.20;3.30;;;8.00;99.90;;;7.33;92.65;95951.47;5003649;28;20076;-71
2022/04/07 04:06:50;;;;;;;7.35;2.78;;;8.00;99.90;;;7.41;92.67;95930.41;5001350;28;20050;-71
2022/04/07 04:09:17;;;;;;;4.05;2.13;;;8.00;99.90;;;7.36;92.63;95940.16;5002818;28;20089;-72
2022/04/07 04:11:44;;;;;;;3.20;2.22;;;8.00;99.90;;;7.36;92.61;95937.56;5002988;28;20046;-71
2022/04/07 04:14:12;;;;;;;6.18;2.53;;;8.00;99.90;;;7.32;92.60;95930.91;5012129;28;20063;-71
2022/04/07 04:16:39;;;;;;;4.57;2.13;;;8.00;99.90;;;7.22;92.55;95909.13;5000515;28;20081;-72
2022/04/07 04:19:06;;;;;;;3.10;1.73;;;8.00;99.90;;;7.27;92.49;95912.28;5002924;28;20161;-71
2022/04/07 04:21:33;;;;;;;4.07;1.38;;;7.90;99.90;;;7.18;92.45;95941.19;5002476;28;20042;-72
2022/04/07 04:24:00;;;;;;;2.67;1.83;;;8.00;99.90;;;7.21;92.41;95935.88;5003434;28;20076;-71
2022/04/07 04:26:27;;;;;;;3.40;1.83;;;8.00;99.90;;;7.20;92.39;95905.81;5001708;28;20070;-71
2022/04/07 04:28:55;;;;;;;3.35;2.00;;;8.00;99.90;;;7.28;92.36;95906.22;5003641;28;20049;-72
2022/04/07 04:31:24;;;;;;;2.53;1.95;;;7.90;99.90;;;7.26;92.34;95910.63;5007882;28;20048;-73
2022/04/07 04:33:52;;;;;;;5.05;2.22;;;8.00;99.90;;;7.29;92.33;95938.84;5002842;28;20112;-72
2022/04/07 04:36:19;;;;;;;4.05;2.45;;;7.90;99.90;;;7.31;92.34;95981.69;5002461;28;20467;-72
2022/04/07 04:38:47;;;;;;;3.60;2.00;;;8.00;99.90;;;7.30;92.35;95945.69;4997777;28;20178;-72
2022/04/07 04:41:14;;;;;;;4.90;2.50;;;8.00;99.90;;;7.28;92.35;95948.34;5002269;28;20077;-72
2022/04/07 04:43:42;;;;;;;3.83;2.67;;;8.00;99.90;;;7.31;92.34;95948.16;5006219;28;20575;-72
2022/04/07 04:46:08;;;;;;;3.53;2.40;;;8.00;99.90;;;7.39;92.39;95914.19;5000628;28;20078;-71
2022/04/07 04:48:36;;;;;;;2.80;2.08;;;8.00;99.90;;;7.32;92.38;95924.03;5004907;28;20453;-73
2022/04/07 04:51:04;;;;;;;2.80;2.05;;;8.10;99.90;;;7.42;92.39;95924.31;5004468;28;20429;-72
2022/04/07 04:53:31;;;;;;;4.30;1.67;;;8.00;99.90;;;7.30;92.40;95881.97;4999880;28;20057;-72
2022/04/07 04:55:58;;;;;;;4.85;1.73;;;8.10;99.90;;;7.42;92.40;95893.34;5000607;28;20089;-73
2022/04/07 04:58:25;;;;;;;3.38;1.58;;;8.10;99.90;;;7.38;92.46;95919.44;5004570;28;20511;-72
2022/04/07 05:00:52;;;;;;;4.63;1.65;;;8.10;99.90;;;7.42;92.50;95858.97;5005329;28;20202;-72
2022/04/07 05:03:19;;;;;;;4.25;1.80;;;8.20;99.90;;;7.37;92.56;95889.34;4996660;28;20677;-72
2022/04/07 05:05:46;;;;;;;5.50;2.10;;;8.20;99.90;;;7.44;92.58;95865.69;5002053;28;20141;-72
2022/04/07 05:08:14;;;;;;;4.43;2.10;;;8.20;99.90;;;7.39;92.62;95903.00;5006260;28;20106;-71
2022/04/07 05:10:41;;;;;;;3.22;2.00;;;8.20;99.90;;;7.44;92.65;95857.13;5001784;28;20136;-72
2022/04/07 05:13:08;;;;;;;4.60;2.83;;;8.20;99.90;;;7.45;92.69;95849.28;4999312;28;20511;-72
2022/04/07 05:15:37;;;;;;;4.18;2.08;;;8.20;99.90;;;7.48;92.76;95876.66;4985183;28;20137;-72
2022/04/07 05:18:04;;;;;;;6.15;2.67;;;8.20;99.90;;;7.47;92.78;95850.03;4973840;28;20454;-73
2022/04/07 05:20:32;;;;;;;8.23;2.72;;;8.30;99.90;;;7.47;92.80;95850.03;5001920;28;20053;-73
2022/04/07 05:22:58;;;;;;;4.72;2.95;;;8.20;99.90;;;7.45;92.84;95857.03;5001887;28;20129;-72
2022/04/07 05:25:25;;;;;;;8.48;3.70;;;8.20;99.90;;;7.32;92.87;95833.69;5002008;28;20133;-72
2022/04/07 05:27:52;;;;;;;6.40;3.08;;;8.10;99.90;;;7.26;92.88;95859.84;4999168;28;20084;-72
2022/04/07 05:30:20;;;;;;;6.05;3.45;;;8.10;99.90;;;7.43;92.86;95830.47;5000908;28;20516;-71
2022/04/07 05:32:47;;;;;;;3.80;2.20;;;8.10;99.90;;;7.27;92.84;95824.53;5000768;28;20121;-72
2022/04/07 05:35:15;;;;;;;4.60;2.10;;;8.00;99.90;;;7.29;92.83;95825.28;5001055;28;20112;-72
2022/04/07 05:37:43;;;;;;;4.70;2.22;;;8.00;99.90;;;7.24;92.79;95814.41;5014965;28;20069;-72
2022/04/07 05:40:12;;;;;;;4.65;1.88;;;7.90;99.90;;;7.28;92.76;95821.88;5003013;28;20600;-72
2022/04/07 05:42:39;;;;;;;3.13;1.98;;;7.90;99.90;;;7.23;92.75;95843.69;4997407;28;20077;-72
2022/04/07 05:45:08;;;;;;;3.75;1.33;;;8.00;99.90;;;7.23;92.76;95784.34;4998276;28;20054;-72
2022/04/07 05:47:41;;;;;;;4.57;1.70;;;8.00;99.90;;;7.19;92.71;95783.69;4995430;28;20093;-71
2022/04/07 05:50:09;;;;;;;2.85;1.15;;;8.00;99.90;;;7.19;92.65;95785.47;5001249;28;20053;-72
2022/04/07 05:52:37;;;;;;;3.75;1.27;;;7.90;99.90;;;7.19;92.62;95778.53;4998266;28;20512;-71
2022/04/07 05:55:05;;;;;;;1.58;0.82;;;7.90;99.90;;;7.16;92.58;95796.78;5001309;28;20049;-71
2022/04/07 05:57:33;;;;;;;2.13;0.77;;;7.90;99.90;;;7.31;92.57;95798.47;4998335;28;20119;-73
2022/04/07 06:00:12;;;;;;;3.55;0.90;;;7.90;99.90;;;7.32;92.52;95796.69;5000742;28;20449;-72
2022/04/07 06:02:40;;;;;;;3.42;0.80;;;7.90;99.90;;;7.28;92.53;95792.66;5032616;28;20096;-72
2022/04/07 06:05:09;;;;;;;1.60;0.70;;;8.00;99.90;;;7.36;92.49;95743.16;4998277;28;20042;-71
2022/04/07 06:07:37;;;;;;;1.70;0.60;;;7.90;99.90;;;9.83;91.66;95846.59;5016129;28;20564;-72
2022/04/07 06:10:06;;;;;;;1.95;0.88;;;7.90;99.90;;;7.39;91.86;95857.41;4983829;28;20069;-71
2022/04/07 06:12:33;;;;;;;2.47;0.90;;;7.90;99.90;;;7.37;91.90;95788.69;4996236;28;20058;-72
2022/04/07 06:15:01;;;;;;;2.58;0.80;;;7.90;99.90;;;7.37;91.85;95770.63;4998210;28;20100;-72
2022/04/07 06:17:41;;;;;;;1.15;0.60;;;7.90;99.90;;;7.36;91.72;95782.72;5000475;28;20096;-72
2022/04/07 06:20:12;;;;;;;2.40;0.70;;;7.90;99.90;;;7.37;91.85;95786.97;4998109;28;20054;-72
2022/04/07 06:22:41;;;;;;;3.83;1.00;;;7.90;99.90;;;7.52;91.91;95760.22;4997413;28;20108;-72
2022/04/07 06:25:09;;;;;;;1.75;0.50;;;7.90;99.90;;;7.42;91.96;95809.94;5004399;28;20088;-72
2022/04/07 06:27:41;;;;;;;0.93;0.50;;;8.00;99.90;;;7.49;92.00;95767.34;5002111;28;20062;-72
2022/04/07 06:30:14;;;;;;;2.22;0.60;;;8.10;99.90;;;7.70;92.04;95753.13;4987341;28;20131;-72
2022/04/07 06:32:42;;;;;;;0.88;0.40;;;8.00;99.90;;;7.64;92.09;95750.09;5003300;28;20140;-72
2022/04/07 06:35:12;;;;;;;1.63;0.80;;;8.10;99.90;;;7.81;92.13;95738.75;5003404;28;20062;-72
2022/04/07 06:37:51;;;;;;;1.83;0.60;;;8.10;99.90;;;7.60;92.17;95707.31;5004814;28;20617;-73
2022/04/07 06:40:22;;;;;;;1.98;0.50;;;8.10;99.90;;;7.58;92.22;95759.03;5007849;28;20064;-71
2022/04/07 06:42:50;;;;;;;2.30;0.55;;;8.10;99.90;;;7.52;92.21;95736.16;4990411;28;20050;-73
2022/04/07 06:45:27;;;;;;;1.80;0.80;;;8.10;99.90;;;7.60;92.21;95739.13;5005884;28;20049;-73
2022/04/07 06:47:55;;;;;;;1.67;0.60;;;8.20;99.90;;;7.62;92.23;95720.94;5003929;28;20044;-72
2022/04/07 06:50:25;;;;;;;2.72;0.70;;;8.20;99.90;;;7.71;92.27;95728.97;5004803;28;20606;-71
2022/04/07 06:52:54;;;;;;;2.22;0.60;;;8.20;99.90;;;7.67;92.31;95701.69;5003068;28;20060;-73
2022/04/07 06:55:21;;;;;;;2.83;0.60;;;8.20;99.90;;;7.70;92.36;95709.22;5000034;28;20088;-71
2022/04/07 06:58:00;;;;;;;1.20;0.50;;;8.10;99.90;;;7.77;92.37;95675.28;5002919;28;20172;-72
2022/04/07 07:00:30;;;;;;;3.30;0.90;;;8.20;99.90;;;7.78;92.42;95669.19;5001192;28;20054;-72
2022/04/07 07:02:59;;;;;;;2.33;0.80;;;8.20;99.90;;;8.39;92.04;95729.94;5004201;28;20456;-72
2022/04/07 07:05:32;;;;;;;3.08;0.85;;;8.30;99.90;;;8.86;92.18;95682.13;4998956;28;20440;-72
2022/04/07 07:08:17;;;;;;;1.00;0.65;;;8.30;99.90;;;7.83;92.32;95649.09;5001409;28;20071;-72
2022/04/07 07:10:47;;;;;;;2.72;0.70;;;8.20;99.90;;;8.02;92.27;95688.34;5001223;28;20147;-72
2022/04/07 07:13:16;;;;;;;1.42;0.60;;;8.30;99.90;;;8.33;92.13;95620.03;5003259;28;20135;-72
2022/04/07 07:15:50;;;;;;;1.42;0.63;;;8.20;99.90;;;8.41;92.13;95608.38;4999491;28;20043;-72
2022/04/07 07:18:17;;;;;;;1.67;0.60;;;8.10;99.90;;;8.08;92.34;95613.03;5002550;28;20062;-72
2022/04/07 07:20:44;;;;;;;1.88;0.70;;;8.10;99.90;;;8.16;92.39;95625.44;5002975;28;20136;-72
2022/04/07 07:23:11;;;;;;;2.45;0.90;;;8.10;99.90;;;8.34;92.46;95649.28;5030550;28;20177;-72
2022/04/07 07:25:39;;;;;;;3.10;0.77;;;8.10;99.90;;;8.66;92.54;95642.03;4998859;28;20125;-72
2022/04/07 07:28:06;;;;;;;1.63;0.60;;;8.20;99.90;;;8.54;92.71;95661.78;4997661;28;20100;-72
2022/04/07 07:30:33;;;;;;;1.40;0.70;;;8.20;99.90;;;8.61;92.67;95589.78;5000443;28;20128;-73
2022/04/07 07:33:01;;;;;;;2.60;0.90;;;8.30;99.90;;;8.64;92.69;95576.66;4982535;28;20042;-72
2022/04/07 07:35:29;;;;;;;5.18;1.27;;;8.20;99.90;;;8.54;92.86;95673.88;4999681;28;20093;-72
2022/04/07 07:38:01;;;;;;;1.88;0.50;;;8.30;99.90;;;8.48;93.00;95597.53;4999129;28;20089;-72
2022/04/07 07:40:31;;;;;;;1.25;0.70;;;8.30;99.90;;;8.61;93.07;95576.88;4999427;28;20070;-72
2022/04/07 07:43:00;;;;;;;0.63;0.47;;;8.30;99.90;;;8.54;93.21;95567.88;4999421;28;20050;-71
2022/04/07 07:45:34;;;;;;;2.58;0.60;;;8.40;99.90;;;8.68;93.30;95578.09;4998270;28;20219;-72
2022/04/07 07:48:27;;;;;;;2.05;0.60;;;8.40;99.90;;;8.53;93.49;95567.03;4998215;28;20077;-71
2022/04/07 07:50:58;;;;;;;1.67;0.57;;;8.50;99.90;;;8.64;93.59;95602.50;5000254;28;20050;-70
2022/04/07 07:53:26;;;;;;;1.27;0.47;;;8.50;99.90;;;8.64;93.73;95571.47;5000694;28;20065;-74
2022/04/07 07:55:54;;;;;;;2.83;0.50;;;8.50;99.90;;;8.47;93.34;95576.97;5014252;28;20141;-70
2022/04/07 07:58:23;;;;;;;3.17;0.60;;;8.50;99.90;;;7.99;93.36;95540.44;4999736;28;20054;-70
2022/04/07 08:00:51;;;;;;;2.00;0.70;;;8.60;99.90;;;8.00;93.30;95544.69;5002291;28;20043;-69
2022/04/07 08:03:18;;;;;;;2.40;0.88;;;8.60;99.90;;;8.78;93.24;95552.44;5000537;28;20042;-69
2022/04/07 08:05:45;;;;;;;1.63;0.60;;;8.70;99.90;;;8.65;93.39;95557.63;5000118;28;20053;-69
2022/04/07 08:08:12;;;;;;;3.58;0.70;;;8.70;99.90;;;8.65;93.48;95585.25;4998358;28;20081;-71
2022/04/07 08:10:40;;;;;;;2.75;0.70;;;8.70;99.90;;;8.59;93.54;95525.22;5000769;28;20054;-70
2022/04/07 08:13:07;;;;;;;3.75;1.02;;;8.70;99.90;;;8.62;93.56;95534.56;5001101;28;20046;-70
2022/04/07 08:15:34;;;;;;;2.60;0.50;;;8.70;99.90;;;8.64;93.64;95560.31;4998772;28;20057;-70
2022/04/07 08:18:02;;;;;;;3.00;0.70;;;8.70;99.90;;;8.69;93.68;95572.03;5001617;28;20050;-71
2022/04/07 08:20:29;;;;;;;3.03;0.55;;;8.70;99.90;;;8.86;93.75;95515.72;5000159;28;20172;-70
2022/04/07 08:22:56;;;;;;;4.35;0.40;;;8.70;99.90;;;8.65;93.82;95542.13;5000636;28;20133;-71
2022/04/07 08:25:23;;;;;;;1.80;0.60;;;8.70;99.90;;;8.67;93.83;95542.84;4998718;28;20549;-70
2022/04/07 08:27:50;;;;;;;1.17;0.45;;;8.70;99.90;;;8.72;93.87;95533.00;4997879;28;20137;-70
2022/04/07 08:30:17;;;;;;;2.70;0.70;;;8.60;99.90;;;8.74;93.90;95532.91;4999946;28;20133;-71
2022/04/07 08:32:45;;;;;;;4.13;0.70;;;8.60;99.90;;;8.85;93.97;95498.53;5000969;28;20050;-70
2022/04/07 08:35:11;;;;;;;2.25;0.88;;;8.60;99.90;;;8.70;94.06;95496.06;5001072;28;20177;-70
2022/04/07 08:37:38;;;;;;;1.70;0.63;;;8.60;99.90;;;8.95;94.06;95465.94;5002428;28;20597;-71
2022/04/07 08:40:07;;;;;;;5.32;3.00;;;8.70;99.90;;;8.87;94.16;95486.31;4991521;28;20140;-70
2022/04/07 08:42:36;;;;;;;2.97;1.42;;;8.70;99.90;;;8.81;94.21;95516.03;5002035;28;20069;-70
2022/04/07 08:45:05;;;;;;;6.50;1.98;;;8.70;99.90;;;8.82;94.28;95489.22;5001335;28;20048;-71
2022/04/07 08:47:34;;;;;;;13.23;6.68;;;8.80;99.90;;;8.87;94.23;95481.13;5003157;28;20072;-71
2022/04/07 08:50:05;;;;;;;8.48;2.40;;;8.80;99.90;;;8.92;92.62;95510.13;4997769;28;20500;-70
2022/04/07 08:52:34;;;;;;;17.27;7.07;;;8.90;99.90;;;8.90;93.16;95499.06;5000377;28;20138;-70
2022/04/07 08:55:01;;;;;;;4.50;1.50;;;8.80;99.90;;;8.88;93.40;95499.16;4986149;28;20473;-69
2022/04/07 08:57:31;;;;;;;16.50;8.15;;;8.90;99.90;;;8.91;93.51;95421.31;5003018;28;20085;-70
2022/04/07 08:59:58;;;;;;;4.55;1.95;;;8.90;99.90;;;8.88;93.64;95465.53;5000283;28;20100;-70
2022/04/07 09:02:25;;;;;;;3.17;0.60;;;9.00;99.90;;;8.95;92.71;95495.22;4999428;28;20540;-70
2022/04/07 09:05:00;;;;;;;0.73;0.40;;;9.00;99.90;;;8.99;93.13;95482.91;4996860;28;20165;-71
2022/04/07 09:07:32;;;;;;;4.43;0.50;;;9.10;99.90;;;8.88;93.33;95464.69;5014357;28;20504;-71
2022/04/07 09:10:01;;;;;;;1.75;0.40;;;9.10;99.90;;;8.91;93.40;95498.94;4997600;28;20070;-69
2022/04/07 09:12:28;;;;;;;1.52;0.50;;;9.10;99.90;;;8.86;93.48;95471.75;4988940;28;20120;-70
2022/04/07 09:14:58;;;;;;;3.05;0.50;;;9.10;99.90;;;8.76;93.47;95430.16;4994896;28;20058;-71
2022/04/07 09:17:26;;;;;;;2.10;0.50;;;9.10;99.90;;;8.72;93.45;95477.88;4996340;28;20471;-71
2022/04/07 09:19:53;;;;;;;1.05;0.60;;;9.10;99.90;;;8.66;93.46;95497.19;4998289;28;20118;-69
2022/04/07 09:22:30;;;;;;;1.13;0.20;;;9.10;99.90;;;8.50;93.38;95426.78;4999630;28;20050;-70
2022/04/07 09:25:04;;;;;;;1.13;0.45;;;9.00;99.90;;;8.57;93.21;95459.88;4997280;28;20129;-70
2022/04/07 09:27:32;;;;;;;0.75;0.55;;;9.00;99.90;;;8.76;92.80;95459.44;4999538;28;20053;-71
2022/04/07 09:29:59;;;;;;;2.28;0.40;;;9.00;99.90;;;8.71;92.66;95456.34;4997765;28;20492;-69
2022/04/07 09:32:26;;;;;;;1.52;0.60;;;8.90;99.90;;;8.79;92.77;95463.56;5001649;28;20099;-70
2022/04/07 09:34:55;;;;;;;3.65;0.70;;;8.90;99.90;;;8.86;92.85;95454.44;4999569;28;20464;-70
2022/04/07 09:37:25;;;;;;;0.63;0.30;;;8.90;99.90;;;8.85;92.92;95457.13;4998014;28;20060;-69
2022/04/07 09:40:12;;;;;;;1.27;0.35;;;9.00;99.90;;;8.95;92.93;95440.06;4984319;28;20512;-69
2022/04/07 09:42:43;;;;;;;1.30;0.40;;;9.10;99.90;;;8.97;92.99;95459.69;5010741;28;20138;-70
2022/04/07 09:45:13;;;;;;;2.88;0.60;;;9.20;99.90;;;8.91;93.02;95387.69;4999836;28;20129;-71
2022/04/07 09:47:49;;;;;;;1.77;0.47;;;9.20;99.90;;;9.04;92.90;95405.75;5001696;28;20069;-71
2022/04/07 09:50:32;;;;;;;0.90;0.30;;;9.20;99.90;;;8.99;93.00;95398.31;4996159;28;20073;-71
2022/04/07 09:53:04;;;;;;;1.15;0.30;;;9.20;99.90;;;8.96;93.07;95464.97;5015240;28;20122;-70
2022/04/07 09:55:37;;;;;;;2.33;0.38;;;9.30;99.90;;;9.24;93.08;95411.25;5013655;28;20488;-71
2022/04/07 09:58:07;;;;;;;1.40;0.82;;;9.30;99.90;;;9.31;93.14;95409.91;5002088;28;20530;-70
2022/04/07 10:00:36;;;;;;;1.27;0.40;;;9.40;99.90;;;9.34;93.20;95379.44;5033083;28;20042;-69
2022/04/07 10:03:03;;;;;;;1.25;0.50;;;9.30;99.90;;;9.07;93.25;95399.53;5003219;28;20074;-71
2022/04/07 10:05:31;;;;;;;0.70;0.40;;;9.30;99.90;;;9.22;93.22;95382.91;5003757;28;20077;-71
2022/04/07 10:07:59;;;;;;;0.52;0.30;;;9.40;99.90;;;9.08;93.31;95411.56;5002697;28;20081;-70
2022/04/07 10:10:28;;;;;;;1.45;0.50;;;9.50;99.90;;;9.20;93.28;95366.66;4999361;28;20046;-69
2022/04/07 10:12:59;;;;;;;4.20;0.50;;;9.50;99.90;;;9.14;93.27;95320.50;4999769;28;20128;-71
2022/04/07 10:15:27;;;;;;;1.45;0.47;;;9.60;99.90;;;9.13;93.26;95427.56;5001762;28;20125;-71
2022/04/07 10:17:59;;;;;;;0.20;0.20;;;9.60;99.90;;;9.16;93.28;95347.94;5016325;28;20046;-71
2022/04/07 10:20:33;;;;;;;0.47;0.20;;;9.60;99.90;;;9.21;92.85;95407.97;4992065;28;20096;-71
2022/04/07 10:23:27;;;;;;;0.43;0.28;;;9.60;99.90;;;9.27;93.00;95281.63;4987021;28;20050;-71
2022/04/07 10:25:56;;;;;;;3.95;0.40;;;9.70;99.90;;;9.24;93.04;95312.91;5006512;28;20046;-70
2022/04/07 10:28:25;;;;;;;0.50;0.30;;;9.60;99.90;;;9.47;92.72;95373.38;5006719;28;20073;-71
2022/04/07 10:30:54;;;;;;;1.88;0.60;;;9.60;99.90;;;9.53;92.90;95354.75;5005750;28;20046;-70
2022/04/07 10:33:46;;;;;;;0.43;0.20;;;9.60;99.90;;;9.62;93.00;95333.38;5004032;28;20626;-70
2022/04/07 10:36:23;;;;;;;1.25;0.40;;;9.60;99.90;;;9.47;93.13;95391.50;5004593;28;20104;-70
2022/04/07 10:38:52;;;;;;;1.38;0.20;;;9.60;99.90;;;9.46;93.22;95300.00;5003565;28;20137;-71
2022/04/07 10:41:38;;;;;;;0.68;0.40;;;9.70;99.90;;;9.65;93.20;95315.03;5004598;28;20132;-71